createdAt,value
2022-11-01T00:02:06.149Z,99.90
2022-11-01T00:04:34.241Z,99.90
2022-11-01T00:07:02.338Z,99.90
2022-11-01T00:09:30.357Z,99.90
2022-11-01T00:11:58.421Z,99.90
2022-11-01T00:14:26.604Z,99.90
2022-11-01T00:16:55.989Z,99.90
2022-11-01T00:19:24.228Z,99.90
2022-11-01T00:21:52.269Z,99.90
2022-11-01T00:24:20.881Z,99.90
2022-11-01T00:29:21.882Z,99.90
2022-11-01T00:31:50.073Z,99.90
2022-11-01T00:34:20.601Z,99.90
2022-11-01T00:36:48.800Z,99.90
2022-11-01T00:39:17.428Z,99.90
2022-11-01T00:41:45.530Z,99.90
2022-11-01T00:44:13.542Z,99.90
2022-11-01T00:46:41.603Z,99.90
2022-11-01T00:49:09.572Z,99.90
2022-11-01T00:51:39.006Z,99.90
2022-11-01T00:54:07.620Z,99.90
2022-11-01T00:56:35.841Z,99.90
2022-11-01T00:59:04.037Z,99.90
2022-11-01T01:01:32.594Z,99.90
2022-11-01T01:04:01.135Z,99.90
2022-11-01T01:06:29.130Z,99.90
2022-11-01T01:09:01.528Z,99.90
2022-11-01T01:11:29.828Z,99.90
2022-11-01T01:13:57.957Z,99.90
2022-11-01T01:16:25.999Z,99.90
2022-11-01T01:18:53.953Z,99.90
2022-11-01T01:21:21.974Z,99.90
2022-11-01T01:23:51.372Z,99.90
2022-11-01T01:26:20.756Z,99.90
2022-11-01T01:28:48.854Z,99.90
2022-11-01T01:31:16.899Z,99.90
2022-11-01T01:33:44.923Z,99.90
2022-11-01T01:36:12.891Z,99.90
2022-11-01T01:38:40.909Z,99.90
2022-11-01T01:41:26.700Z,99.90
2022-11-01T01:43:56.006Z,99.90
2022-11-01T01:46:24.029Z,99.90
2022-11-01T01:48:58.779Z,99.90
2022-11-01T01:51:30.080Z,99.90
2022-11-01T01:53:59.751Z,99.90
2022-11-01T01:56:36.522Z,99.90
2022-11-01T01:59:10.141Z,99.90
2022-11-01T02:01:42.001Z,99.90
2022-11-01T02:04:19.111Z,99.90
2022-11-01T02:06:49.026Z,99.90
2022-11-01T02:09:19.072Z,99.90
2022-11-01T02:11:47.564Z,99.90
2022-11-01T02:14:18.393Z,99.90
2022-11-01T02:16:56.072Z,99.90
2022-11-01T02:20:09.435Z,99.90
2022-11-01T02:23:11.027Z,99.90
2022-11-01T02:26:08.076Z,99.90
2022-11-01T02:29:00.500Z,99.90
2022-11-01T02:32:04.797Z,99.90
2022-11-01T02:34:44.775Z,99.90
2022-11-01T02:37:21.971Z,99.90
2022-11-01T02:39:56.700Z,99.90
2022-11-01T02:42:32.713Z,99.90
2022-11-01T02:45:08.171Z,99.90
2022-11-01T02:47:41.588Z,99.90
2022-11-01T02:50:12.792Z,99.90
2022-11-01T02:52:42.941Z,99.90
2022-11-01T02:55:30.084Z,99.90
2022-11-01T02:58:03.176Z,99.90
2022-11-01T03:00:35.064Z,99.90
2022-11-01T03:03:20.633Z,99.90
2022-11-01T03:06:02.664Z,99.90
2022-11-01T03:08:36.577Z,99.90
2022-11-01T03:11:12.148Z,99.90
2022-11-01T03:13:58.975Z,99.90
2022-11-01T03:16:34.584Z,99.90
2022-11-01T03:19:24.679Z,99.90
2022-11-01T03:22:03.211Z,99.90
2022-11-01T03:24:36.150Z,99.90
2022-11-01T03:27:12.054Z,99.90
2022-11-01T03:29:45.022Z,99.90
2022-11-01T03:32:15.927Z,99.90
2022-11-01T03:34:47.213Z,99.90
2022-11-01T03:37:16.611Z,99.90
2022-11-01T03:39:51.874Z,99.90
2022-11-01T03:42:24.030Z,99.90
2022-11-01T03:45:00.351Z,99.90
2022-11-01T03:47:29.883Z,99.90
2022-11-01T03:50:22.210Z,99.90
2022-11-01T03:52:50.402Z,99.90
2022-11-01T03:55:21.257Z,99.90
2022-11-01T03:57:51.301Z,99.90
2022-11-01T04:00:22.690Z,99.90
2022-11-01T04:02:51.683Z,99.90
2022-11-01T04:05:23.158Z,99.90
2022-11-01T04:07:52.250Z,99.90
2022-11-01T04:10:21.956Z,99.90
2022-11-01T04:12:51.455Z,99.90
2022-11-01T04:15:39.355Z,99.90
2022-11-01T04:18:33.253Z,99.90
2022-11-01T04:21:08.290Z,99.90
2022-11-01T04:23:37.234Z,99.90
2022-11-01T04:26:07.300Z,99.90
2022-11-01T04:28:35.413Z,99.90
2022-11-01T04:31:03.415Z,99.90
2022-11-01T04:33:31.487Z,99.90
2022-11-01T04:35:59.609Z,99.90
2022-11-01T04:38:29.052Z,99.90
2022-11-01T04:40:57.047Z,99.90
2022-11-01T04:43:25.105Z,99.90
2022-11-01T04:45:56.369Z,99.90
2022-11-01T04:48:26.163Z,99.90
2022-11-01T04:50:54.869Z,99.90
2022-11-01T04:53:22.936Z,99.90
2022-11-01T04:55:52.401Z,99.90
2022-11-01T04:58:20.446Z,99.90
2022-11-01T05:00:48.852Z,99.90
2022-11-01T05:03:16.946Z,99.90
2022-11-01T05:05:45.125Z,99.90
2022-11-01T05:08:14.905Z,99.90
2022-11-01T05:10:45.400Z,99.90
2022-11-01T05:13:15.179Z,99.90
2022-11-01T05:15:53.642Z,99.90
2022-11-01T05:18:27.469Z,99.90
2022-11-01T05:20:57.292Z,99.90
2022-11-01T05:23:25.272Z,99.90
2022-11-01T05:25:53.334Z,99.90
2022-11-01T05:28:23.664Z,99.90
2022-11-01T05:30:51.784Z,99.90
2022-11-01T05:33:19.856Z,99.90
2022-11-01T05:35:47.884Z,99.90
2022-11-01T05:38:15.941Z,99.90
2022-11-01T05:40:43.969Z,99.90
2022-11-01T05:43:11.998Z,99.90
2022-11-01T05:45:41.450Z,99.90
2022-11-01T05:48:09.502Z,99.90
2022-11-01T05:50:37.530Z,99.90
2022-11-01T05:53:07.420Z,99.90
2022-11-01T05:55:36.075Z,99.90
2022-11-01T05:58:04.251Z,99.90
2022-11-01T06:00:32.960Z,99.90
2022-11-01T06:03:02.994Z,99.90
2022-11-01T06:05:31.783Z,99.90
2022-11-01T06:08:02.920Z,99.90
2022-11-01T06:10:31.880Z,99.90
2022-11-01T06:13:01.113Z,99.90
2022-11-01T06:15:30.658Z,99.90
2022-11-01T06:18:02.430Z,99.90
2022-11-01T06:20:33.186Z,99.90
2022-11-01T06:23:01.795Z,99.90
2022-11-01T06:25:29.957Z,99.90
2022-11-01T06:27:58.006Z,99.90
2022-11-01T06:30:26.056Z,99.90
2022-11-01T06:32:54.164Z,99.90
2022-11-01T06:35:23.530Z,99.90
2022-11-01T06:37:51.698Z,99.90
2022-11-01T06:40:19.764Z,99.90
2022-11-01T06:42:47.883Z,99.90
2022-11-01T06:45:16.175Z,99.90
2022-11-01T06:47:48.421Z,99.90
2022-11-01T06:50:17.171Z,99.90
2022-11-01T06:52:46.580Z,99.90
2022-11-01T06:55:15.054Z,99.90
2022-11-01T06:57:43.162Z,99.90
2022-11-01T07:00:12.785Z,99.90
2022-11-01T07:02:40.927Z,99.90
2022-11-01T07:05:09.507Z,99.90
2022-11-01T07:07:37.561Z,99.90
2022-11-01T07:10:08.616Z,99.90
2022-11-01T07:12:36.656Z,99.90
2022-11-01T07:15:05.570Z,99.90
2022-11-01T07:17:33.583Z,99.90
2022-11-01T07:20:01.570Z,99.90
2022-11-01T07:22:30.339Z,99.90
2022-11-01T07:24:58.468Z,99.90
2022-11-01T07:27:27.913Z,99.90
2022-11-01T07:29:56.394Z,99.90
2022-11-01T07:32:25.215Z,99.90
2022-11-01T07:34:53.296Z,99.90
2022-11-01T07:37:21.338Z,99.90
2022-11-01T07:39:49.408Z,99.90
2022-11-01T07:42:17.417Z,99.90
2022-11-01T07:44:46.768Z,99.90
2022-11-01T07:47:14.935Z,99.90
2022-11-01T07:49:43.010Z,99.90
2022-11-01T07:52:11.053Z,99.90
2022-11-01T07:54:39.164Z,99.90
2022-11-01T07:57:07.443Z,99.90
2022-11-01T07:59:35.471Z,99.90
2022-11-01T08:02:07.876Z,99.90
2022-11-01T08:04:36.421Z,99.90
2022-11-01T08:07:04.485Z,99.90
2022-11-01T08:09:32.516Z,99.90
2022-11-01T08:12:01.112Z,99.90
2022-11-01T08:14:29.188Z,99.90
2022-11-01T08:17:01.498Z,99.90
2022-11-01T08:19:30.910Z,99.90
2022-11-01T08:21:59.615Z,99.90
2022-11-01T08:24:28.110Z,99.90
2022-11-01T08:26:56.200Z,99.90
2022-11-01T08:29:24.409Z,99.90
2022-11-01T08:31:52.442Z,99.90
2022-11-01T08:34:20.658Z,99.90
2022-11-01T08:36:50.126Z,99.90
2022-11-01T08:39:18.279Z,99.90
2022-11-01T08:41:51.003Z,99.90
2022-11-01T08:44:20.255Z,99.90
2022-11-01T08:46:48.277Z,99.90
2022-11-01T08:49:16.363Z,99.90
2022-11-01T08:51:44.504Z,99.90
2022-11-01T08:54:13.975Z,99.90
2022-11-01T08:56:41.978Z,99.90
2022-11-01T08:59:10.322Z,99.90
2022-11-01T09:01:38.679Z,99.90
2022-11-01T09:04:07.483Z,99.90
2022-11-01T09:06:36.468Z,99.90
2022-11-01T09:09:06.145Z,99.90
2022-11-01T09:11:35.569Z,99.90
2022-11-01T09:14:03.678Z,99.90
2022-11-01T09:16:32.737Z,99.90
2022-11-01T09:19:01.874Z,99.90
2022-11-01T09:21:31.749Z,99.90
2022-11-01T09:24:00.746Z,99.90
2022-11-01T09:26:29.264Z,99.90
2022-11-01T09:29:00.000Z,99.90
2022-11-01T09:31:28.823Z,99.90
2022-11-01T09:33:58.631Z,99.90
2022-11-01T09:36:30.926Z,99.90
2022-11-01T09:38:59.440Z,99.90
2022-11-01T09:41:38.823Z,99.90
2022-11-01T09:44:17.094Z,99.90
2022-11-01T09:46:50.580Z,99.90
2022-11-01T09:49:25.557Z,99.90
2022-11-01T09:51:54.291Z,99.90
2022-11-01T09:54:28.527Z,99.90
2022-11-01T09:57:18.543Z,99.90
2022-11-01T10:00:04.912Z,99.90
2022-11-01T10:05:55.389Z,99.90
2022-11-01T10:08:43.934Z,99.90
2022-11-01T10:11:44.664Z,99.90
2022-11-01T10:14:31.157Z,99.90
2022-11-01T10:17:13.773Z,99.90
2022-11-01T10:19:44.777Z,99.90
2022-11-01T10:22:18.195Z,99.90
2022-11-01T10:24:52.417Z,99.90
2022-11-01T10:27:34.537Z,99.90
2022-11-01T10:30:09.766Z,99.90
2022-11-01T10:32:47.941Z,99.90
2022-11-01T10:35:22.503Z,99.90
2022-11-01T10:38:11.220Z,99.90
2022-11-01T10:40:56.189Z,99.90
2022-11-01T10:43:26.930Z,99.90
2022-11-01T10:46:00.016Z,99.90
2022-11-01T10:48:37.993Z,99.90
2022-11-01T10:51:09.103Z,99.90
2022-11-01T10:53:44.797Z,99.90
2022-11-01T10:56:23.858Z,99.90
2022-11-01T10:59:00.516Z,99.90
2022-11-01T11:01:32.867Z,99.90
2022-11-01T11:04:07.674Z,99.90
2022-11-01T11:06:38.037Z,99.90
2022-11-01T11:09:07.211Z,99.90
2022-11-01T11:11:40.649Z,99.90
2022-11-01T11:14:13.362Z,99.90
2022-11-01T11:16:47.999Z,99.90
2022-11-01T11:19:26.129Z,99.90
2022-11-01T11:21:56.405Z,99.90
2022-11-01T11:24:31.733Z,99.90
2022-11-01T11:27:02.067Z,99.90
2022-11-01T11:29:48.471Z,99.90
2022-11-01T11:32:21.157Z,99.90
2022-11-01T11:34:59.358Z,99.90
2022-11-01T11:37:32.872Z,99.90
2022-11-01T11:40:16.603Z,99.90
2022-11-01T11:42:45.972Z,99.90
2022-11-01T11:45:25.844Z,99.90
2022-11-01T11:47:55.820Z,99.90
2022-11-01T11:50:35.112Z,99.90
2022-11-01T11:53:18.238Z,99.90
2022-11-01T11:55:54.700Z,99.90
2022-11-01T11:58:29.072Z,99.90
2022-11-01T12:01:03.922Z,99.90
2022-11-01T12:03:44.994Z,99.90
2022-11-01T12:06:21.736Z,99.90
2022-11-01T12:08:53.267Z,99.90
2022-11-01T12:11:23.503Z,99.90
2022-11-01T12:14:03.493Z,99.90
2022-11-01T12:16:40.808Z,99.90
2022-11-01T12:19:25.679Z,99.90
2022-11-01T12:21:56.435Z,99.90
2022-11-01T12:24:28.345Z,99.90
2022-11-01T12:27:03.677Z,99.90
2022-11-01T12:29:38.402Z,99.90
2022-11-01T12:32:15.707Z,99.90
2022-11-01T12:34:48.764Z,99.90
2022-11-01T12:37:24.571Z,99.90
2022-11-01T12:39:59.236Z,99.90
2022-11-01T12:42:32.312Z,99.90
2022-11-01T12:45:11.599Z,99.90
2022-11-01T12:47:47.621Z,99.90
2022-11-01T12:50:25.457Z,99.90
2022-11-01T12:53:01.988Z,99.90
2022-11-01T12:55:35.758Z,99.90
2022-11-01T12:58:04.399Z,99.90
2022-11-01T13:00:55.077Z,99.90
2022-11-01T13:03:44.220Z,24.50
2022-11-01T13:06:37.634Z,1.00
2022-11-01T13:09:19.304Z,99.90
2022-11-01T13:12:00.552Z,1.00
2022-11-01T13:14:47.421Z,1.00
2022-11-01T13:17:28.220Z,1.00
2022-11-01T13:20:14.555Z,1.00
2022-11-01T13:22:54.267Z,1.00
2022-11-01T13:25:36.563Z,1.00
2022-11-01T13:28:25.929Z,1.00
2022-11-01T13:31:04.896Z,1.00
2022-11-01T13:33:45.910Z,1.00
2022-11-01T13:36:25.075Z,1.00
2022-11-01T13:39:06.953Z,1.00
2022-11-01T13:41:49.722Z,1.00
2022-11-01T13:44:23.158Z,1.00
2022-11-01T13:47:28.822Z,1.00
2022-11-01T13:50:49.881Z,1.00
2022-11-01T13:53:28.802Z,1.00
2022-11-01T13:56:03.334Z,1.00
2022-11-01T13:58:33.693Z,1.00
2022-11-01T14:01:35.411Z,1.00
2022-11-01T14:04:56.289Z,1.00
2022-11-01T14:07:25.034Z,1.00
2022-11-01T14:09:54.638Z,1.00
2022-11-01T14:12:43.270Z,1.00
2022-11-01T14:15:25.384Z,10.10
2022-11-01T14:18:09.769Z,20.20
2022-11-01T14:20:47.622Z,18.50
2022-11-01T14:24:01.601Z,23.80
2022-11-01T14:27:19.874Z,43.60
2022-11-01T14:29:53.960Z,23.90
2022-11-01T14:32:27.647Z,21.30
2022-11-01T14:35:16.759Z,39.00
2022-11-01T14:37:51.385Z,45.80
2022-11-01T14:40:37.537Z,39.00
2022-11-01T14:43:18.179Z,57.10
2022-11-01T14:45:53.787Z,51.60
2022-11-01T14:48:31.972Z,54.00
2022-11-01T14:51:10.546Z,79.30
2022-11-01T14:53:40.099Z,96.30
2022-11-01T14:56:16.423Z,99.90
2022-11-01T14:58:45.294Z,99.90
2022-11-01T15:01:18.098Z,99.90
2022-11-01T15:03:57.617Z,99.90
2022-11-01T15:06:29.351Z,99.90
2022-11-01T15:08:59.332Z,99.90
2022-11-01T15:11:30.316Z,99.90
2022-11-01T15:14:02.267Z,99.90
2022-11-01T15:16:30.837Z,99.90
2022-11-01T15:19:06.431Z,99.90
2022-11-01T15:21:35.972Z,99.90
2022-11-01T15:24:05.113Z,99.90
2022-11-01T15:26:34.695Z,99.90
2022-11-01T15:29:06.733Z,99.90
2022-11-01T15:31:36.210Z,99.90
2022-11-01T15:34:21.311Z,99.90
2022-11-01T15:36:49.605Z,99.90
2022-11-01T15:39:21.606Z,99.90
2022-11-01T15:41:50.788Z,99.90
2022-11-01T15:44:25.833Z,99.90
2022-11-01T15:46:58.856Z,99.90
2022-11-01T15:49:32.571Z,99.90
2022-11-01T15:52:05.397Z,99.90
2022-11-01T15:54:45.309Z,99.90
2022-11-01T15:57:23.580Z,99.90
2022-11-01T16:00:05.413Z,99.90
2022-11-01T16:02:43.126Z,99.90
2022-11-01T16:05:19.035Z,99.90
2022-11-01T16:07:48.816Z,99.90
2022-11-01T16:10:21.414Z,99.90
2022-11-01T16:12:51.079Z,99.90
2022-11-01T16:15:25.524Z,99.90
2022-11-01T16:17:57.390Z,99.90
2022-11-01T16:20:36.607Z,99.90
2022-11-01T16:23:06.350Z,99.90
2022-11-01T16:25:38.042Z,99.90
2022-11-01T16:28:29.583Z,99.90
2022-11-01T16:30:59.314Z,99.90
2022-11-01T16:33:31.669Z,99.90
2022-11-01T16:36:05.689Z,99.90
2022-11-01T16:38:44.627Z,99.90
2022-11-01T16:41:20.383Z,99.90
2022-11-01T16:43:49.874Z,99.90
2022-11-01T16:46:19.424Z,99.90
2022-11-01T16:48:54.995Z,99.90
2022-11-01T16:51:28.538Z,99.90
2022-11-01T16:53:58.954Z,99.90
2022-11-01T16:56:36.676Z,99.90
2022-11-01T16:59:12.802Z,99.90
2022-11-01T17:01:41.218Z,99.90
2022-11-01T17:04:13.290Z,99.90
2022-11-01T17:06:42.786Z,99.90
2022-11-01T17:09:16.116Z,99.90
2022-11-01T17:11:50.711Z,99.90
2022-11-01T17:14:20.397Z,99.90
2022-11-01T17:16:50.523Z,99.90
2022-11-01T17:19:25.831Z,99.90
2022-11-01T17:21:57.137Z,99.90
2022-11-01T17:24:27.238Z,99.90
2022-11-01T17:27:00.644Z,99.90
2022-11-01T17:29:29.226Z,99.90
2022-11-01T17:31:57.254Z,99.90
2022-11-01T17:34:26.413Z,99.90
2022-11-01T17:36:57.196Z,99.90
2022-11-01T17:39:28.623Z,99.90
2022-11-01T17:41:57.789Z,99.90
2022-11-01T17:44:26.092Z,99.90
2022-11-01T17:46:54.227Z,99.90
2022-11-01T17:49:24.344Z,99.90
2022-11-01T17:51:54.982Z,99.90
2022-11-01T17:56:54.060Z,99.90
2022-11-01T17:59:22.316Z,99.90
2022-11-01T18:01:50.674Z,99.90
2022-11-01T18:04:18.747Z,99.90
2022-11-01T18:06:46.742Z,99.90
2022-11-01T18:09:22.728Z,99.90
2022-11-01T18:12:04.287Z,99.90
2022-11-01T18:17:39.192Z,99.90
2022-11-01T18:20:20.667Z,99.90
2022-11-01T18:22:56.680Z,99.90
2022-11-01T18:25:33.433Z,99.90
2022-11-01T18:28:12.997Z,99.90
2022-11-01T18:30:42.717Z,99.90
2022-11-01T18:33:19.510Z,99.90
2022-11-01T18:35:56.790Z,99.90
2022-11-01T18:38:33.221Z,99.90
2022-11-01T18:41:03.349Z,99.90
2022-11-01T18:43:37.646Z,99.90
2022-11-01T18:46:30.677Z,99.90
2022-11-01T18:49:03.633Z,99.90
2022-11-01T18:51:34.567Z,99.90
2022-11-01T18:54:24.345Z,99.90
2022-11-01T18:56:55.289Z,99.90
2022-11-01T18:59:32.275Z,99.90
2022-11-01T19:02:10.381Z,99.90
2022-11-01T19:04:42.262Z,99.90
2022-11-01T19:07:15.137Z,99.90
2022-11-01T19:09:50.053Z,99.90
2022-11-01T19:12:26.906Z,99.90
2022-11-01T19:15:05.081Z,99.90
2022-11-01T19:17:41.158Z,99.90
2022-11-01T19:20:24.040Z,99.90
2022-11-01T19:22:57.119Z,99.90
2022-11-01T19:25:29.248Z,99.90
2022-11-01T19:28:05.051Z,99.90
2022-11-01T19:30:35.347Z,99.90
2022-11-01T19:33:17.204Z,99.90
2022-11-01T19:35:46.232Z,99.90
2022-11-01T19:38:16.954Z,99.90
2022-11-01T19:40:45.042Z,99.90
2022-11-01T19:43:19.602Z,99.90
2022-11-01T19:45:52.669Z,99.90
2022-11-01T19:48:24.575Z,99.90
2022-11-01T19:50:52.717Z,99.90
2022-11-01T19:53:26.296Z,99.90
2022-11-01T19:55:59.492Z,99.90
2022-11-01T19:58:42.167Z,99.90
2022-11-01T20:01:41.665Z,99.90
2022-11-01T20:04:24.470Z,99.90
2022-11-01T20:07:01.153Z,99.90
2022-11-01T20:09:31.610Z,99.90
2022-11-01T20:11:59.726Z,99.90
2022-11-01T20:14:27.910Z,99.90
2022-11-01T20:16:58.399Z,99.90
2022-11-01T20:19:26.814Z,99.90
2022-11-01T20:21:55.168Z,99.90
2022-11-01T20:24:23.227Z,99.90
2022-11-01T20:26:51.774Z,99.90
2022-11-01T20:29:20.069Z,99.90
2022-11-01T20:31:48.602Z,99.90
2022-11-01T20:34:18.100Z,99.90
2022-11-01T20:37:02.159Z,99.90
2022-11-01T20:39:34.511Z,99.90
2022-11-01T20:42:04.064Z,99.90
2022-11-01T20:44:32.464Z,99.90
2022-11-01T20:47:00.591Z,99.90
2022-11-01T20:49:30.068Z,99.90
2022-11-01T20:52:13.406Z,99.90
2022-11-01T20:54:46.495Z,99.90
2022-11-01T20:57:27.192Z,99.90
2022-11-01T20:59:56.456Z,99.90
2022-11-01T21:02:25.026Z,99.90
2022-11-01T21:05:02.042Z,99.90
2022-11-01T21:07:32.349Z,99.90
2022-11-01T21:10:00.575Z,99.90
2022-11-01T21:12:45.180Z,99.90
2022-11-01T21:15:38.327Z,99.90
2022-11-01T21:18:37.959Z,99.90
2022-11-01T21:21:46.272Z,99.90
2022-11-01T21:24:36.145Z,99.90
2022-11-01T21:30:17.766Z,99.90
2022-11-01T21:32:47.236Z,99.90
2022-11-01T21:35:40.805Z,99.90
2022-11-01T21:38:38.507Z,99.90
2022-11-01T21:41:31.536Z,99.90
2022-11-01T21:44:21.115Z,99.90
2022-11-01T21:46:52.075Z,99.90
2022-11-01T21:49:30.376Z,99.90
2022-11-01T21:52:01.434Z,99.90
2022-11-01T21:54:34.081Z,99.90
2022-11-01T21:57:03.170Z,99.90
2022-11-01T21:59:31.904Z,99.90
2022-11-01T22:02:01.918Z,99.90
2022-11-01T22:04:32.029Z,99.90
2022-11-01T22:07:02.195Z,99.90
2022-11-01T22:09:33.100Z,99.90
2022-11-01T22:12:01.350Z,99.90
2022-11-01T22:14:29.604Z,99.90
2022-11-01T22:16:57.719Z,99.90
2022-11-01T22:19:25.857Z,99.90
2022-11-01T22:21:53.894Z,99.90
2022-11-01T22:24:23.438Z,99.90
2022-11-01T22:26:53.028Z,99.90
2022-11-01T22:29:21.069Z,99.90
2022-11-01T22:31:49.063Z,99.90
2022-11-01T22:34:17.940Z,99.90
2022-11-01T22:36:45.999Z,99.90
2022-11-01T22:39:21.191Z,99.90
2022-11-01T22:41:49.975Z,99.90
2022-11-01T22:44:27.053Z,99.90
2022-11-01T22:46:59.493Z,99.90
2022-11-01T22:49:32.092Z,99.90
2022-11-01T22:52:05.830Z,99.90
2022-11-01T22:54:40.092Z,99.90
2022-11-01T22:57:17.061Z,99.90
2022-11-01T22:59:52.379Z,99.90
2022-11-01T23:02:28.899Z,99.90
2022-11-01T23:05:22.502Z,99.90
2022-11-01T23:07:52.777Z,99.90
2022-11-01T23:10:30.391Z,99.90
2022-11-01T23:13:31.581Z,99.90
2022-11-01T23:16:03.294Z,99.90
2022-11-01T23:18:35.821Z,99.90
2022-11-01T23:21:08.028Z,99.90
2022-11-01T23:23:38.742Z,99.90
2022-11-01T23:26:07.118Z,99.90
2022-11-01T23:28:37.132Z,99.90
2022-11-01T23:31:07.547Z,99.90
2022-11-01T23:33:40.818Z,99.90
2022-11-01T23:36:19.492Z,99.90
2022-11-01T23:38:52.029Z,99.90
2022-11-01T23:41:24.947Z,99.90
2022-11-01T23:43:56.696Z,99.90
2022-11-01T23:46:28.607Z,99.90
2022-11-01T23:49:03.357Z,99.90
2022-11-01T23:51:32.162Z,99.90
2022-11-01T23:54:01.045Z,99.90
2022-11-01T23:56:29.497Z,99.90
2022-11-01T23:59:04.152Z,99.90
